createdAt,value
2018-07-26T00:00:45.772Z,1017.23
2018-07-26T00:01:54.691Z,1017.21
2018-07-26T00:03:03.832Z,1017.22
2018-07-26T00:04:12.697Z,1017.23
2018-07-26T00:05:21.564Z,1017.25
2018-07-26T00:06:30.987Z,1017.29
2018-07-26T00:07:39.854Z,1017.23
2018-07-26T00:08:49.072Z,1017.25
2018-07-26T00:09:58.263Z,1017.25
2018-07-26T00:11:07.692Z,1017.23
2018-07-26T00:12:16.553Z,1017.19
2018-07-26T00:13:25.422Z,1017.22
2018-07-26T00:14:34.564Z,1017.23
2018-07-26T00:15:43.428Z,1017.19
2018-07-26T00:16:52.571Z,1017.17
2018-07-26T00:18:01.438Z,1017.18
2018-07-26T00:19:10.305Z,1017.17
2018-07-26T00:20:19.173Z,1017.15
2018-07-26T00:21:28.053Z,1017.17
2018-07-26T00:22:37.209Z,1017.16
2018-07-26T00:23:46.078Z,1017.13
2018-07-26T00:24:54.948Z,1017.2
2018-07-26T00:26:04.090Z,1017.18
2018-07-26T00:27:13.239Z,1017.21
2018-07-26T00:28:22.104Z,1017.19
2018-07-26T00:29:30.972Z,1017.19
2018-07-26T00:30:39.840Z,1017.18
2018-07-26T00:31:48.855Z,1017.21
2018-07-26T00:32:58.000Z,1017.21
2018-07-26T00:34:06.865Z,1017.21
2018-07-26T00:35:15.731Z,1017.21
2018-07-26T00:36:24.604Z,1017.24
2018-07-26T00:37:33.915Z,1017.24
2018-07-26T00:38:42.779Z,1017.24
2018-07-26T00:39:51.645Z,1017.26
2018-07-26T00:41:00.510Z,1017.24
2018-07-26T00:42:09.375Z,1017.27
2018-07-26T00:43:18.242Z,1017.25
2018-07-26T00:44:27.106Z,1017.27
2018-07-26T00:45:35.972Z,1017.28
2018-07-26T00:46:45.119Z,1017.26
2018-07-26T00:47:53.985Z,1017.26
2018-07-26T00:49:02.849Z,1017.24
2018-07-26T00:50:11.713Z,1017.28
2018-07-26T00:51:20.904Z,1017.26
2018-07-26T00:52:29.775Z,1017.26
2018-07-26T00:53:38.922Z,1017.28
2018-07-26T00:54:48.413Z,1017.24
2018-07-26T00:55:57.277Z,1017.26
2018-07-26T00:57:06.419Z,1017.26
2018-07-26T00:58:15.282Z,1017.25
2018-07-26T00:59:24.429Z,1017.22
2018-07-26T01:00:33.296Z,1017.24
2018-07-26T01:01:42.154Z,1017.26
2018-07-26T01:02:51.018Z,1017.29
2018-07-26T01:03:59.882Z,1017.33
2018-07-26T01:05:08.747Z,1017.3
2018-07-26T01:06:17.963Z,1017.29
2018-07-26T01:07:27.110Z,1017.3
2018-07-26T01:08:35.974Z,1017.31
2018-07-26T01:09:44.839Z,1017.37
2018-07-26T01:10:53.704Z,1017.32
2018-07-26T01:12:02.854Z,1017.32
2018-07-26T01:13:11.722Z,1017.33
2018-07-26T01:14:20.583Z,1017.37
2018-07-26T01:15:29.453Z,1017.35
2018-07-26T01:16:38.318Z,1017.38
2018-07-26T01:17:47.332Z,1017.34
2018-07-26T01:18:56.200Z,1017.36
2018-07-26T01:20:05.064Z,1017.34
2018-07-26T01:21:13.926Z,1017.36
2018-07-26T01:22:23.064Z,1017.3
2018-07-26T01:23:31.927Z,1017.34
2018-07-26T01:24:40.792Z,1017.33
2018-07-26T01:25:49.659Z,1017.36
2018-07-26T01:26:58.522Z,1017.36
2018-07-26T01:28:07.388Z,1017.33
2018-07-26T01:29:16.249Z,1017.34
2018-07-26T01:30:25.390Z,1017.33
2018-07-26T01:31:34.253Z,1017.34
2018-07-26T01:32:43.397Z,1017.34
2018-07-26T01:33:52.258Z,1017.36
2018-07-26T01:35:01.503Z,1017.35
2018-07-26T01:36:10.365Z,1017.35
2018-07-26T01:37:19.226Z,1017.34
2018-07-26T01:38:28.091Z,1017.37
2018-07-26T01:39:37.232Z,1017.38
2018-07-26T01:40:46.343Z,1017.37
2018-07-26T01:41:55.207Z,1017.4
2018-07-26T01:43:04.072Z,1017.39
2018-07-26T01:44:12.936Z,1017.44
2018-07-26T01:45:21.798Z,1017.42
2018-07-26T01:46:30.662Z,1017.44
2018-07-26T01:47:39.525Z,1017.46
2018-07-26T01:48:48.389Z,1017.48
2018-07-26T01:49:57.252Z,1017.43
2018-07-26T01:51:06.117Z,1017.4
2018-07-26T01:52:15.255Z,1017.43
2018-07-26T01:53:24.120Z,1017.42
2018-07-26T01:54:32.986Z,1017.37
2018-07-26T01:55:42.126Z,1017.41
2018-07-26T01:56:51.266Z,1017.38
2018-07-26T01:58:00.129Z,1017.39
2018-07-26T01:59:08.994Z,1017.38
2018-07-26T02:00:17.858Z,1017.37
2018-07-26T02:01:26.723Z,1017.42
2018-07-26T02:02:36.220Z,1017.38
2018-07-26T02:03:45.722Z,1017.39
2018-07-26T02:04:54.859Z,1017.38
2018-07-26T02:06:03.726Z,1017.34
2018-07-26T02:07:12.590Z,1017.32
2018-07-26T02:08:21.450Z,1017.33
2018-07-26T02:09:30.318Z,1017.29
2018-07-26T02:10:39.492Z,1017.28
2018-07-26T02:11:48.608Z,1017.3
2018-07-26T02:12:57.745Z,1017.32
2018-07-26T02:14:06.612Z,1017.31
2018-07-26T02:15:15.627Z,1017.31
2018-07-26T02:16:24.770Z,1017.38
2018-07-26T02:17:33.634Z,1017.39
2018-07-26T02:18:42.500Z,1017.38
2018-07-26T02:19:51.365Z,1017.37
2018-07-26T02:21:00.229Z,1017.38
2018-07-26T02:22:09.090Z,1017.34
2018-07-26T02:23:18.230Z,1017.4
2018-07-26T02:24:27.099Z,1017.39
2018-07-26T02:25:36.242Z,1017.35
2018-07-26T02:26:45.259Z,1017.35
2018-07-26T02:27:54.130Z,1017.33
2018-07-26T02:29:03.273Z,1017.34
2018-07-26T02:30:12.416Z,1017.34
2018-07-26T02:31:21.290Z,1017.31
2018-07-26T02:32:30.707Z,1017.38
2018-07-26T02:33:39.580Z,1017.34
2018-07-26T02:34:48.443Z,1017.34
2018-07-26T02:35:57.581Z,1017.33
2018-07-26T02:37:06.461Z,1017.31
2018-07-26T02:38:16.041Z,1017.32
2018-07-26T02:39:25.732Z,1017.3
2018-07-26T02:40:34.871Z,1017.32
2018-07-26T02:41:44.015Z,1017.32
2018-07-26T02:42:53.160Z,1017.34
2018-07-26T02:44:02.026Z,1017.31
2018-07-26T02:45:10.888Z,1017.34
2018-07-26T02:46:19.763Z,1017.33
2018-07-26T02:47:29.739Z,1017.32
2018-07-26T02:48:38.881Z,1017.32
2018-07-26T02:49:48.034Z,1017.33
2018-07-26T02:50:56.898Z,1017.3
2018-07-26T02:52:05.768Z,1017.33
2018-07-26T02:53:14.635Z,1017.36
2018-07-26T02:54:23.503Z,1017.36
2018-07-26T02:55:32.366Z,1017.4
2018-07-26T02:56:41.237Z,1017.34
2018-07-26T02:57:50.377Z,1017.35
2018-07-26T02:58:59.247Z,1017.35
2018-07-26T03:00:08.111Z,1017.34
2018-07-26T03:01:17.256Z,1017.39
2018-07-26T03:02:26.418Z,1017.38
2018-07-26T03:03:35.575Z,1017.35
2018-07-26T03:04:45.000Z,1017.36
2018-07-26T03:05:53.866Z,1017.38
2018-07-26T03:07:02.811Z,1017.35
2018-07-26T03:08:12.013Z,1017.36
2018-07-26T03:09:21.158Z,1017.36
2018-07-26T03:10:31.149Z,1017.36
2018-07-26T03:11:40.320Z,1017.4
2018-07-26T03:12:49.742Z,1017.38
2018-07-26T03:13:58.607Z,1017.34
2018-07-26T03:15:08.029Z,1017.34
2018-07-26T03:16:18.008Z,1017.33
2018-07-26T03:17:26.875Z,1017.32
2018-07-26T03:18:35.888Z,1017.33
2018-07-26T03:19:44.763Z,1017.27
2018-07-26T03:20:53.634Z,1017.31
2018-07-26T03:22:02.489Z,1017.32
2018-07-26T03:23:11.351Z,1017.31
2018-07-26T03:24:20.878Z,1017.31
2018-07-26T03:25:29.742Z,1017.35
2018-07-26T03:26:38.619Z,1017.28
2018-07-26T03:27:47.489Z,1017.3
2018-07-26T03:28:56.352Z,1017.3
2018-07-26T03:30:05.516Z,1017.32
2018-07-26T03:31:14.668Z,1017.33
2018-07-26T03:32:23.808Z,1017.32
2018-07-26T03:33:32.681Z,1017.29
2018-07-26T03:34:41.535Z,1017.32
2018-07-26T03:35:50.398Z,1017.28
2018-07-26T03:36:59.538Z,1017.3
2018-07-26T03:38:08.961Z,1017.26
2018-07-26T03:39:17.827Z,1017.27
2018-07-26T03:40:26.970Z,1017.26
2018-07-26T03:41:35.834Z,1017.27
2018-07-26T03:42:44.700Z,1017.23
2018-07-26T03:43:53.567Z,1017.26
2018-07-26T03:45:02.982Z,1017.27
2018-07-26T03:46:11.846Z,1017.27
2018-07-26T03:47:20.708Z,1017.26
2018-07-26T03:48:29.570Z,1017.26
2018-07-26T03:49:38.430Z,1017.27
2018-07-26T03:50:47.294Z,1017.3
2018-07-26T03:51:56.162Z,1017.3
2018-07-26T03:53:05.300Z,1017.28
2018-07-26T03:54:14.163Z,1017.29
2018-07-26T03:55:23.028Z,1017.31
2018-07-26T03:56:31.891Z,1017.28
2018-07-26T03:57:41.041Z,1017.32
2018-07-26T03:58:49.903Z,1017.33
2018-07-26T03:59:58.766Z,1017.31
2018-07-26T04:01:07.638Z,1017.32
2018-07-26T04:02:17.056Z,1017.3
2018-07-26T04:03:25.994Z,1017.34
2018-07-26T04:04:35.167Z,1017.3
2018-07-26T04:05:44.037Z,1017.36
2018-07-26T04:06:52.894Z,1017.3
2018-07-26T04:08:01.757Z,1017.35
2018-07-26T04:09:10.621Z,1017.33
2018-07-26T04:10:19.862Z,1017.38
2018-07-26T04:11:28.728Z,1017.34
2018-07-26T04:12:37.589Z,1017.35
2018-07-26T04:13:46.452Z,1017.41
2018-07-26T04:14:55.920Z,1017.37
2018-07-26T04:16:04.932Z,1017.39
2018-07-26T04:17:13.795Z,1017.37
2018-07-26T04:18:22.666Z,1017.38
2018-07-26T04:19:31.531Z,1017.36
2018-07-26T04:20:40.395Z,1017.35
2018-07-26T04:21:49.888Z,1017.37
2018-07-26T04:22:59.030Z,1017.36
2018-07-26T04:24:08.166Z,1017.37
2018-07-26T04:25:17.303Z,1017.4
2018-07-26T04:26:26.164Z,1017.36
2018-07-26T04:27:35.178Z,1017.41
2018-07-26T04:28:44.042Z,1017.38
2018-07-26T04:29:52.905Z,1017.38
2018-07-26T04:31:01.770Z,1017.34
2018-07-26T04:32:10.691Z,1017.36
2018-07-26T04:33:19.974Z,1017.36
2018-07-26T04:34:29.115Z,1017.33
2018-07-26T04:35:37.978Z,1017.36
2018-07-26T04:36:46.840Z,1017.36
2018-07-26T04:37:55.701Z,1017.34
2018-07-26T04:39:04.713Z,1017.33
2018-07-26T04:40:13.577Z,1017.34
2018-07-26T04:41:22.443Z,1017.37
2018-07-26T04:42:31.306Z,1017.41
2018-07-26T04:43:40.170Z,1017.4
2018-07-26T04:44:49.466Z,1017.41
2018-07-26T04:45:58.881Z,1017.4
2018-07-26T04:47:07.945Z,1017.38
2018-07-26T04:48:17.120Z,1017.38
2018-07-26T04:49:25.986Z,1017.4
2018-07-26T04:50:34.846Z,1017.41
2018-07-26T04:51:43.709Z,1017.37
2018-07-26T04:52:52.968Z,1017.41
2018-07-26T04:54:01.710Z,1017.39
2018-07-26T04:55:10.574Z,1017.4
2018-07-26T04:56:19.789Z,1017.4
2018-07-26T04:57:28.652Z,1017.38
2018-07-26T04:58:37.520Z,1017.37
2018-07-26T04:59:46.659Z,1017.39
2018-07-26T05:00:55.523Z,1017.38
2018-07-26T05:02:04.388Z,1017.37
2018-07-26T05:03:13.252Z,1017.35
2018-07-26T05:04:22.672Z,1017.4
2018-07-26T05:05:31.537Z,1017.41
2018-07-26T05:06:40.681Z,1017.37
2018-07-26T05:07:49.925Z,1017.37
2018-07-26T05:08:59.070Z,1017.37
2018-07-26T05:10:07.934Z,1017.4
2018-07-26T05:11:16.801Z,1017.41
2018-07-26T05:12:25.937Z,1017.38
2018-07-26T05:13:35.233Z,1017.44
2018-07-26T05:14:44.097Z,1017.42
2018-07-26T05:15:52.964Z,1017.43
2018-07-26T05:17:01.828Z,1017.41
2018-07-26T05:18:10.692Z,1017.46
2018-07-26T05:19:19.884Z,1017.46
2018-07-26T05:20:29.024Z,1017.42
2018-07-26T05:21:37.887Z,1017.4
2018-07-26T05:22:47.038Z,1017.44
2018-07-26T05:23:55.907Z,1017.42
2018-07-26T05:25:05.119Z,1017.43
2018-07-26T05:26:13.981Z,1017.47
2018-07-26T05:27:23.121Z,1017.46
2018-07-26T05:28:32.266Z,1017.45
2018-07-26T05:29:41.138Z,1017.45
2018-07-26T05:30:50.007Z,1017.45
2018-07-26T05:31:59.146Z,1017.48
2018-07-26T05:33:08.016Z,1017.46
2018-07-26T05:34:16.878Z,1017.43
2018-07-26T05:35:26.027Z,1017.45
2018-07-26T05:36:35.173Z,1017.47
2018-07-26T05:37:44.055Z,1017.42
2018-07-26T05:38:53.537Z,1017.46
2018-07-26T05:40:02.402Z,1017.45
2018-07-26T05:41:11.266Z,1017.47
2018-07-26T05:42:20.410Z,1017.47
2018-07-26T05:43:29.273Z,1017.49
2018-07-26T05:44:38.138Z,1017.45
2018-07-26T05:45:47.002Z,1017.48
2018-07-26T05:46:55.866Z,1017.45
2018-07-26T05:48:04.888Z,1017.49
2018-07-26T05:49:13.756Z,1017.5
2018-07-26T05:50:22.906Z,1017.48
2018-07-26T05:51:31.769Z,1017.52
2018-07-26T05:52:40.645Z,1017.56
2018-07-26T05:53:49.500Z,1017.56
2018-07-26T05:54:58.365Z,1017.61
2018-07-26T05:56:07.231Z,1017.64
2018-07-26T05:57:16.096Z,1017.63
2018-07-26T05:58:25.236Z,1017.67
2018-07-26T05:59:34.380Z,1017.68
2018-07-26T06:00:43.249Z,1017.68
2018-07-26T06:01:52.402Z,1017.72
2018-07-26T06:03:01.275Z,1017.68
2018-07-26T06:04:10.140Z,1017.7
2018-07-26T06:05:19.006Z,1017.72
2018-07-26T06:06:27.872Z,1017.73
2018-07-26T06:07:36.738Z,1017.75
2018-07-26T06:08:45.604Z,1017.76
2018-07-26T06:09:54.469Z,1017.78
2018-07-26T06:11:03.333Z,1017.75
2018-07-26T06:12:12.202Z,1017.78
2018-07-26T06:13:21.068Z,1017.78
2018-07-26T06:14:30.208Z,1017.75
2018-07-26T06:15:39.073Z,1017.75
2018-07-26T06:16:47.938Z,1017.77
2018-07-26T06:17:56.808Z,1017.78
2018-07-26T06:19:05.947Z,1017.79
2018-07-26T06:20:14.814Z,1017.77
2018-07-26T06:21:23.957Z,1017.8
2018-07-26T06:22:33.103Z,1017.83
2018-07-26T06:23:41.968Z,1017.85
2018-07-26T06:24:50.840Z,1017.86
2018-07-26T06:25:59.987Z,1017.83
2018-07-26T06:27:08.855Z,1017.86
2018-07-26T06:28:18.134Z,1017.86
2018-07-26T06:29:26.909Z,1017.85
2018-07-26T06:30:35.783Z,1017.87
2018-07-26T06:31:44.919Z,1017.92
2018-07-26T06:32:54.065Z,1017.86
2018-07-26T06:34:03.485Z,1017.87
2018-07-26T06:35:12.628Z,1017.86
2018-07-26T06:36:21.492Z,1017.87
2018-07-26T06:37:30.526Z,1017.87
2018-07-26T06:38:39.671Z,1017.82
2018-07-26T06:39:49.094Z,1017.82
2018-07-26T06:40:57.962Z,1017.83
2018-07-26T06:42:07.141Z,1017.82
2018-07-26T06:43:16.329Z,1017.85
2018-07-26T06:44:25.156Z,1017.79
2018-07-26T06:45:34.026Z,1017.77
2018-07-26T06:46:42.901Z,1017.77
2018-07-26T06:47:52.109Z,1017.75
2018-07-26T06:49:00.976Z,1017.79
2018-07-26T06:50:09.842Z,1017.78
2018-07-26T06:51:18.708Z,1017.8
2018-07-26T06:52:27.857Z,1017.82
2018-07-26T06:53:37.005Z,1017.81
2018-07-26T06:54:45.871Z,1017.76
2018-07-26T06:55:54.737Z,1017.82
2018-07-26T06:57:03.603Z,1017.81
2018-07-26T06:58:12.476Z,1017.78
2018-07-26T06:59:21.343Z,1017.81
2018-07-26T07:00:30.211Z,1017.81
2018-07-26T07:01:39.075Z,1017.77
2018-07-26T07:02:48.221Z,1017.82
2018-07-26T07:03:57.362Z,1017.78
2018-07-26T07:05:06.378Z,1017.77
2018-07-26T07:06:15.245Z,1017.82
2018-07-26T07:07:24.113Z,1017.79
2018-07-26T07:08:32.986Z,1017.83
2018-07-26T07:09:41.851Z,1017.82
2018-07-26T07:10:50.875Z,1017.86
2018-07-26T07:11:59.747Z,1017.84
2018-07-26T07:13:08.664Z,1017.83
2018-07-26T07:14:17.533Z,1017.81
2018-07-26T07:15:26.676Z,1017.82
2018-07-26T07:16:35.542Z,1017.81
2018-07-26T07:17:44.407Z,1017.8
2018-07-26T07:18:53.551Z,1017.79
2018-07-26T07:20:02.415Z,1017.81
2018-07-26T07:21:11.317Z,1017.81
2018-07-26T07:22:20.282Z,1017.82
2018-07-26T07:23:29.150Z,1017.78
2018-07-26T07:24:38.017Z,1017.83
2018-07-26T07:25:47.158Z,1017.81
2018-07-26T07:26:56.072Z,1017.8
2018-07-26T07:28:05.216Z,1017.83
2018-07-26T07:29:14.086Z,1017.79
2018-07-26T07:30:23.801Z,1017.82
2018-07-26T07:31:32.669Z,1017.81
2018-07-26T07:32:41.539Z,1017.87
2018-07-26T07:33:50.405Z,1017.81
2018-07-26T07:34:59.273Z,1017.81
2018-07-26T07:36:08.440Z,1017.82
2018-07-26T07:37:17.297Z,1017.84
2018-07-26T07:38:26.161Z,1017.82
2018-07-26T07:39:35.305Z,1017.82
2018-07-26T07:40:44.169Z,1017.82
2018-07-26T07:41:53.039Z,1017.83
2018-07-26T07:43:01.905Z,1017.81
2018-07-26T07:44:10.772Z,1017.83
2018-07-26T07:45:19.641Z,1017.79
2018-07-26T07:46:28.541Z,1017.82
2018-07-26T07:47:37.400Z,1017.82
2018-07-26T07:48:47.090Z,1017.81
2018-07-26T07:49:55.969Z,1017.85
2018-07-26T07:51:04.831Z,1017.84
2018-07-26T07:52:13.986Z,1017.84
2018-07-26T07:53:23.009Z,1017.84
2018-07-26T07:54:32.162Z,1017.83
2018-07-26T07:55:41.023Z,1017.81
2018-07-26T07:56:49.893Z,1017.82
2018-07-26T07:57:58.764Z,1017.82
2018-07-26T07:59:07.629Z,1017.82
2018-07-26T08:00:16.496Z,1017.82
2018-07-26T08:01:25.604Z,1017.8
2018-07-26T08:02:34.478Z,1017.8
2018-07-26T08:03:43.337Z,1017.81
2018-07-26T08:04:52.204Z,1017.82
2018-07-26T08:06:01.089Z,1017.84
2018-07-26T08:07:09.956Z,1017.81
2018-07-26T08:08:18.824Z,1017.78
2018-07-26T08:09:27.692Z,1017.74
2018-07-26T08:10:36.608Z,1017.8
2018-07-26T08:11:45.483Z,1017.83
2018-07-26T08:12:54.356Z,1017.81
2018-07-26T08:14:03.505Z,1017.79
2018-07-26T08:15:12.376Z,1017.81
2018-07-26T08:16:21.714Z,1017.79
2018-07-26T08:17:30.596Z,1017.81
2018-07-26T08:18:39.464Z,1017.86
2018-07-26T08:19:48.333Z,1017.82
2018-07-26T08:20:57.203Z,1017.85
2018-07-26T08:22:06.088Z,1017.83
2018-07-26T08:23:14.954Z,1017.84
2018-07-26T08:24:23.906Z,1017.83
2018-07-26T08:25:32.782Z,1017.87
2018-07-26T08:26:41.652Z,1017.84
2018-07-26T08:27:50.519Z,1017.88
2018-07-26T08:28:59.389Z,1017.87
2018-07-26T08:30:08.257Z,1017.87
2018-07-26T08:31:17.127Z,1017.85
2018-07-26T08:32:25.994Z,1017.86
2018-07-26T08:33:34.865Z,1017.88
2018-07-26T08:34:44.029Z,1017.87
2018-07-26T08:35:53.424Z,1017.89
2018-07-26T08:37:02.296Z,1017.89
2018-07-26T08:38:11.171Z,1017.92
2018-07-26T08:39:20.046Z,1017.93
2018-07-26T08:40:28.910Z,1017.9
2018-07-26T08:41:37.783Z,1017.85
2018-07-26T08:42:46.650Z,1017.86
2018-07-26T08:43:55.516Z,1017.9
2018-07-26T08:45:04.389Z,1017.9
2018-07-26T08:46:13.270Z,1017.89
2018-07-26T08:47:22.583Z,1017.87
2018-07-26T08:48:31.452Z,1017.93
2018-07-26T08:49:40.320Z,1017.92
2018-07-26T08:50:49.188Z,1017.85
2018-07-26T08:51:58.053Z,1017.93
2018-07-26T08:53:07.273Z,1017.87
2018-07-26T08:54:16.178Z,1017.83
2018-07-26T08:55:25.009Z,1017.83
2018-07-26T08:56:33.874Z,1017.91
2018-07-26T08:57:42.745Z,1017.83
2018-07-26T08:58:51.615Z,1017.81
2018-07-26T09:00:00.482Z,1017.81
2018-07-26T09:01:09.352Z,1017.84
2018-07-26T09:02:18.599Z,1017.82
2018-07-26T09:03:27.473Z,1017.8
2018-07-26T09:04:36.358Z,1017.89
2018-07-26T09:05:45.238Z,1017.83
2018-07-26T09:06:54.108Z,1017.81
2018-07-26T09:08:03.536Z,1017.82
2018-07-26T09:09:12.402Z,1017.77
2018-07-26T09:10:21.620Z,1017.77
2018-07-26T09:11:30.532Z,1017.76
2018-07-26T09:12:39.373Z,1017.79
2018-07-26T09:13:48.251Z,1017.8
2018-07-26T09:14:57.492Z,1017.85
2018-07-26T09:16:06.639Z,1017.78
2018-07-26T09:17:15.519Z,1017.81
2018-07-26T09:18:24.381Z,1017.83
2018-07-26T09:19:33.260Z,1017.82
2018-07-26T09:20:42.473Z,1017.79
2018-07-26T09:21:51.717Z,1017.84
2018-07-26T09:23:00.588Z,1017.81
2018-07-26T09:24:09.730Z,1017.82
2018-07-26T09:25:18.601Z,1017.81
2018-07-26T09:26:27.469Z,1017.85
2018-07-26T09:27:36.339Z,1017.79
2018-07-26T09:28:45.219Z,1017.76
2018-07-26T09:29:54.424Z,1017.8
2018-07-26T09:31:03.295Z,1017.78
2018-07-26T09:32:12.165Z,1017.79
2018-07-26T09:33:21.084Z,1017.81
2018-07-26T09:34:30.191Z,1017.76
2018-07-26T09:35:39.061Z,1017.82
2018-07-26T09:36:47.932Z,1017.8
2018-07-26T09:37:56.794Z,1017.77
2018-07-26T09:39:06.011Z,1017.78
2018-07-26T09:40:14.880Z,1017.75
2018-07-26T09:41:23.753Z,1017.73
2018-07-26T09:42:32.626Z,1017.76
2018-07-26T09:43:41.776Z,1017.76
2018-07-26T09:44:50.928Z,1017.75
2018-07-26T09:45:59.801Z,1017.74
2018-07-26T09:47:08.668Z,1017.75
2018-07-26T09:48:17.536Z,1017.74
2018-07-26T09:49:26.685Z,1017.71
2018-07-26T09:50:36.206Z,1017.75
2018-07-26T09:51:45.076Z,1017.77
2018-07-26T09:52:54.224Z,1017.7
2018-07-26T09:54:03.371Z,1017.74
2018-07-26T09:55:12.524Z,1017.74
2018-07-26T09:56:21.392Z,1017.68
2018-07-26T09:57:30.294Z,1017.69
2018-07-26T09:58:39.140Z,1017.67
2018-07-26T09:59:48.011Z,1017.62
2018-07-26T10:00:56.980Z,1017.62
2018-07-26T10:02:06.279Z,1017.61
2018-07-26T10:03:15.431Z,1017.67
2018-07-26T10:04:24.303Z,1017.66
2018-07-26T10:05:33.172Z,1017.66
2018-07-26T10:06:42.045Z,1017.64
2018-07-26T10:07:51.266Z,1017.63
2018-07-26T10:09:00.137Z,1017.58
2018-07-26T10:10:09.008Z,1017.6
2018-07-26T10:11:17.878Z,1017.58
2018-07-26T10:12:26.746Z,1017.59
2018-07-26T10:13:35.965Z,1017.57
2018-07-26T10:14:45.111Z,1017.56
2018-07-26T10:15:54.279Z,1017.61
2018-07-26T10:17:03.229Z,1017.57
2018-07-26T10:18:12.101Z,1017.55
2018-07-26T10:19:20.970Z,1017.56
2018-07-26T10:20:29.841Z,1017.55
2018-07-26T10:21:38.714Z,1017.55
2018-07-26T10:22:47.859Z,1017.52
2018-07-26T10:23:56.732Z,1017.53
2018-07-26T10:25:05.599Z,1017.57
2018-07-26T10:26:14.470Z,1017.51
2018-07-26T10:27:23.340Z,1017.53
2018-07-26T10:28:32.210Z,1017.56
2018-07-26T10:29:41.079Z,1017.54
2018-07-26T10:30:50.229Z,1017.54
2018-07-26T10:31:59.097Z,1017.53
2018-07-26T10:33:08.245Z,1017.52
2018-07-26T10:34:17.113Z,1017.51
2018-07-26T10:35:25.982Z,1017.46
2018-07-26T10:36:34.855Z,1017.51
2018-07-26T10:37:43.726Z,1017.5
2018-07-26T10:38:52.594Z,1017.48
2018-07-26T10:40:01.479Z,1017.39
2018-07-26T10:41:10.351Z,1017.41
2018-07-26T10:42:19.369Z,1017.41
2018-07-26T10:43:28.240Z,1017.36
2018-07-26T10:44:37.399Z,1017.37
2018-07-26T10:45:46.253Z,1017.37
2018-07-26T10:46:55.122Z,1017.41
2018-07-26T10:48:04.148Z,1017.4
2018-07-26T10:49:13.293Z,1017.41
2018-07-26T10:50:22.161Z,1017.35
2018-07-26T10:51:31.067Z,1017.45
2018-07-26T10:52:39.927Z,1017.41
2018-07-26T10:53:49.454Z,1017.37
2018-07-26T10:54:58.325Z,1017.33
2018-07-26T10:56:07.488Z,1017.37
2018-07-26T10:57:16.365Z,1017.32
2018-07-26T10:58:25.515Z,1017.34
2018-07-26T10:59:34.534Z,1017.31
2018-07-26T11:00:43.407Z,1017.33
2018-07-26T11:01:52.277Z,1017.32
2018-07-26T11:03:01.148Z,1017.33
2018-07-26T11:04:10.016Z,1017.29
2018-07-26T11:05:19.239Z,1017.3
2018-07-26T11:06:28.111Z,1017.32
2018-07-26T11:07:36.980Z,1017.24
2018-07-26T11:08:45.852Z,1017.29
2018-07-26T11:09:54.720Z,1017.33
2018-07-26T11:11:03.741Z,1017.29
2018-07-26T11:12:12.610Z,1017.27
2018-07-26T11:13:21.756Z,1017.32
2018-07-26T11:14:30.626Z,1017.36
2018-07-26T11:15:39.500Z,1017.32
2018-07-26T11:16:48.647Z,1017.32
2018-07-26T11:17:57.516Z,1017.33
2018-07-26T11:19:06.947Z,1017.26
2018-07-26T11:20:16.095Z,1017.27
2018-07-26T11:21:24.965Z,1017.24
2018-07-26T11:22:33.985Z,1017.25
2018-07-26T11:23:42.857Z,1017.24
2018-07-26T11:24:51.728Z,1017.23
2018-07-26T11:26:00.601Z,1017.25
2018-07-26T11:27:09.503Z,1017.26
2018-07-26T11:28:18.769Z,1017.24
2018-07-26T11:29:27.920Z,1017.22
2018-07-26T11:30:37.363Z,1017.23
2018-07-26T11:31:46.232Z,1017.18
2018-07-26T11:32:55.104Z,1017.16
2018-07-26T11:34:03.975Z,1017.08
2018-07-26T11:35:13.122Z,1017.13
2018-07-26T11:36:22.274Z,1017.12
2018-07-26T11:37:31.146Z,1017.13
2018-07-26T11:38:40.346Z,1017.19
2018-07-26T11:39:49.221Z,1017.11
2018-07-26T11:40:58.088Z,1017.1
2018-07-26T11:42:06.955Z,1017.05
2018-07-26T11:43:15.830Z,1017.09
2018-07-26T11:44:24.977Z,1017.06
2018-07-26T11:45:33.949Z,1017.11
2018-07-26T11:46:42.819Z,1017.1
2018-07-26T11:47:51.690Z,1017.12
2018-07-26T11:49:00.564Z,1017.09
2018-07-26T11:50:09.500Z,1017.04
2018-07-26T11:51:18.713Z,1017.08
2018-07-26T11:52:27.856Z,1017.1
2018-07-26T11:53:37.012Z,1017.11
2018-07-26T11:54:46.161Z,1017.09
2018-07-26T11:55:55.860Z,1017.02
2018-07-26T11:57:04.735Z,1017.09
2018-07-26T11:58:13.607Z,1017.11
2018-07-26T11:59:22.483Z,1017.01
2018-07-26T12:00:31.354Z,1017.02
2018-07-26T12:01:40.282Z,1017.02
2018-07-26T12:02:49.462Z,1017
2018-07-26T12:03:58.333Z,1016.98
2018-07-26T12:05:07.207Z,1017
2018-07-26T12:06:16.362Z,1017.05
2018-07-26T12:07:25.236Z,1017.08
2018-07-26T12:08:34.113Z,1017.04
2018-07-26T12:09:42.987Z,1017.06
2018-07-26T12:10:51.857Z,1017.01
2018-07-26T12:12:01.011Z,1017
2018-07-26T12:13:09.885Z,1016.99
2018-07-26T12:14:18.965Z,1017.04
2018-07-26T12:15:27.789Z,1017.01
2018-07-26T12:16:36.667Z,1016.96
2018-07-26T12:17:45.579Z,1016.97
2018-07-26T12:18:54.814Z,1016.93
2018-07-26T12:20:03.693Z,1017.02
2018-07-26T12:21:12.570Z,1016.96
2018-07-26T12:22:21.447Z,1017
2018-07-26T12:23:30.321Z,1016.89
2018-07-26T12:24:39.200Z,1016.88
2018-07-26T12:25:48.356Z,1016.97
2018-07-26T12:26:57.514Z,1016.95
2018-07-26T12:28:06.701Z,1016.89
2018-07-26T12:29:15.858Z,1016.89
2018-07-26T12:30:24.734Z,1016.89
2018-07-26T12:31:33.712Z,1016.88
2018-07-26T12:32:42.870Z,1016.87
2018-07-26T12:33:51.749Z,1016.92
2018-07-26T12:35:00.912Z,1016.92
2018-07-26T12:36:09.791Z,1016.85
2018-07-26T12:37:18.740Z,1016.91
2018-07-26T12:38:27.672Z,1016.9
2018-07-26T12:39:36.551Z,1016.88
2018-07-26T12:40:45.529Z,1016.86
2018-07-26T12:41:54.785Z,1016.82
2018-07-26T12:43:03.691Z,1016.81
2018-07-26T12:44:12.862Z,1016.82
2018-07-26T12:45:22.071Z,1016.82
2018-07-26T12:46:31.234Z,1016.83
2018-07-26T12:47:41.702Z,1016.75
2018-07-26T12:48:50.764Z,1016.78
2018-07-26T12:49:59.700Z,1016.78
2018-07-26T12:51:08.956Z,1016.76
2018-07-26T12:52:18.161Z,1016.76
2018-07-26T12:53:27.653Z,1016.74
2018-07-26T12:54:36.733Z,1016.72
2018-07-26T12:55:46.203Z,1016.66
2018-07-26T12:56:55.393Z,1016.69
2018-07-26T12:58:04.693Z,1016.71
2018-07-26T12:59:13.578Z,1016.72
2018-07-26T13:00:22.567Z,1016.72
2018-07-26T13:01:31.924Z,1016.74
2018-07-26T13:02:41.194Z,1016.69
2018-07-26T13:03:50.104Z,1016.69
2018-07-26T13:04:59.027Z,1016.69
2018-07-26T13:06:07.931Z,1016.68
2018-07-26T13:07:16.981Z,1016.67
2018-07-26T13:08:25.836Z,1016.65
2018-07-26T13:09:34.789Z,1016.67
2018-07-26T13:10:43.728Z,1016.66
2018-07-26T13:11:53.187Z,1016.56
2018-07-26T13:13:02.146Z,1016.56
2018-07-26T13:14:11.445Z,1016.6
2018-07-26T13:15:20.331Z,1016.63
2018-07-26T13:16:29.512Z,1016.59
2018-07-26T13:17:38.472Z,1016.63
2018-07-26T13:18:47.655Z,1016.58
2018-07-26T13:19:56.692Z,1016.55
2018-07-26T13:21:05.816Z,1016.71
2018-07-26T13:22:14.880Z,1016.69
2018-07-26T13:23:23.973Z,1016.63
2018-07-26T13:24:32.996Z,1016.63
2018-07-26T13:25:42.472Z,1016.59
2018-07-26T13:26:51.917Z,1016.59
2018-07-26T13:28:01.227Z,1016.57
2018-07-26T13:29:10.200Z,1016.63
2018-07-26T13:30:19.663Z,1016.61
2018-07-26T13:31:28.546Z,1016.59
2018-07-26T13:32:37.736Z,1016.57
2018-07-26T13:33:46.708Z,1016.57
2018-07-26T13:34:56.085Z,1016.57
2018-07-26T13:36:05.111Z,1016.57
2018-07-26T13:37:14.433Z,1016.56
2018-07-26T13:38:23.624Z,1016.57
2018-07-26T13:39:32.789Z,1016.6
2018-07-26T13:40:42.123Z,1016.57
2018-07-26T13:41:51.601Z,1016.5
2018-07-26T13:43:00.547Z,1016.45
2018-07-26T13:44:09.731Z,1016.47
2018-07-26T13:45:18.691Z,1016.47
2018-07-26T13:46:27.889Z,1016.44
2018-07-26T13:47:36.775Z,1016.45
2018-07-26T13:48:46.112Z,1016.45
2018-07-26T13:49:55.233Z,1016.5
2018-07-26T13:51:04.220Z,1016.5
2018-07-26T13:52:13.363Z,1016.47
2018-07-26T13:53:22.350Z,1016.46
2018-07-26T13:54:31.689Z,1016.45
2018-07-26T13:55:40.577Z,1016.47
2018-07-26T13:56:49.753Z,1016.44